Georgia Highway — 7JCV — position and weather

sailwx.info

Track history (hours):
 
Tides and Currents Weather Stations Pressure Air Temp Water Temp Dewpoint Dewpoint Depression Visibility Wind Speed Wind Dir Waves Ship Positions

Georgia Highway

Last reported at 2017-Jun-14 11:09 UTC. Time now 2017-Jun-22 23:57 UTC.
Position N 46°13' W 125°35'.
Warning: this ship's position is 8 days out of date.

Length 200 m; draft 7.8 m.

Type: Cargo ship. MMSI: 432629000.

Date/timePositionNaut miles runAvg speedWind from/ knotsBaromVisibWave heightAir tempDewpointWater temp
2017-Jun-14 11:09N 46°13' W 125°35'215.7
2017-Jun-14 11:00N 46°13' W 125°31'816.0
2017-Jun-14 10:30N 46°13' W 125°20'816.2
2017-Jun-14 10:01N 46°12' W 125°08'815.8
2017-Jun-14 09:30N 46°12' W 124°57'815.4
2017-Jun-14 09:00N 46°12' W 124°46'715.0
2017-Jun-14 08:30N 46°12' W 124°35'815.1
2017-Jun-14 08:01N 46°12' W 124°24'815.7
2017-Jun-14 07:31N 46°12' W 124°13'5 9.5
2017-Jun-14 07:00N 46°14' W 124°06'612.5
2017-Jun-14 06:31N 46°13' W 123°58'611.1
2017-Jun-14 06:00N 46°12' W 123°50'5 9.4
2017-Jun-14 05:30N 46°14' W 123°44'713.8
2017-Jun-14 05:00N 46°15' W 123°34'611.4
2017-Jun-14 04:31N 46°14' W 123°26'612.0
2017-Jun-14 04:00N 46°09' W 123°23'714.3
2017-Jun-14 03:30N 46°10' W 123°12'815.2
2017-Jun-14 03:01N 46°09' W 123°02'611.5
2017-Jun-14 02:30N 46°05' W 122°55'612.6
2017-Jun-14 02:01N 45°60' W 122°51'612.4
2017-Jun-14 01:31N 45°54' W 122°48'714.2
2017-Jun-14 01:01N 45°47' W 122°46'714.5
2017-Jun-14 00:30N 45°40' W 122°46'1 1.8
2017-Jun-14 00:00N 45°39' W 122°45'0 0.0
2017-Jun-13 23:30N 45°39' W 122°45'0 0.0
2017-Jun-13 23:00N 45°39' W 122°45'0 0.0
2017-Jun-13 22:27N 45°39' W 122°45'0 0.0
2017-Jun-13 22:00N 45°39' W 122°45'0 0.0
2017-Jun-13 21:30N 45°39' W 122°45'0 0.0
2017-Jun-13 21:00N 45°39' W 122°45'0 0.0
2017-Jun-13 20:30N 45°39' W 122°45'0 0.0
2017-Jun-13 20:00N 45°39' W 122°45'0 0.0
2017-Jun-13 19:27N 45°39' W 122°45'0 0.0
2017-Jun-13 19:00N 45°39' W 122°45'0 0.0
2017-Jun-13 18:30N 45°39' W 122°45'0 0.0
2017-Jun-13 18:00N 45°39' W 122°45'0 0.0
2017-Jun-13 17:30N 45°39' W 122°45'0 0.0
2017-Jun-13 17:00N 45°39' W 122°45'0 0.0
2017-Jun-13 16:30N 45°39' W 122°45'0 0.0
2017-Jun-13 15:57N 45°39' W 122°45'0 0.0
2017-Jun-13 15:27N 45°39' W 122°45'0 0.0
2017-Jun-13 15:00N 45°39' W 122°45'0 0.0
2017-Jun-13 14:27N 45°39' W 122°45'0 0.0
2017-Jun-13 13:21N 45°39' W 122°45'0 0.0
2017-Jun-13 12:51N 45°39' W 122°45'0 0.0
2017-Jun-13 12:30N 45°39' W 122°45'0 0.0
2017-Jun-13 12:00N 45°39' W 122°45'0 0.0
2017-Jun-13 11:30N 45°39' W 122°45'0 0.0
2017-Jun-13 11:00N 45°39' W 122°45'0 0.0
2017-Jun-13 10:30N 45°39' W 122°45'0 0.0
2017-Jun-13 10:00N 45°39' W 122°45'0 0.0
2017-Jun-13 09:27N 45°39' W 122°45'0 0.0
2017-Jun-13 09:00N 45°39' W 122°45'0 0.0
2017-Jun-13 08:30N 45°39' W 122°45'0 0.0
2017-Jun-13 08:00N 45°39' W 122°45'0 0.0
2017-Jun-13 07:24N 45°39' W 122°45'0 0.0
2017-Jun-13 07:00N 45°39' W 122°45'0 0.0
2017-Jun-13 06:30N 45°39' W 122°45'0 0.0
2017-Jun-13 06:00N 45°39' W 122°45'0 0.0
2017-Jun-13 05:24N 45°39' W 122°45'0 0.0
2017-Jun-13 04:59N 45°39' W 122°45'0 0.0
2017-Jun-13 04:30N 45°39' W 122°45'0 0.0
2017-Jun-13 04:00N 45°39' W 122°45'0 0.0
2017-Jun-13 03:30N 45°39' W 122°45'0 0.0
2017-Jun-13 03:00N 45°39' W 122°45'0 0.0
2017-Jun-13 01:54N 45°39' W 122°45'0 0.0
2017-Jun-13 01:30N 45°39' W 122°45'0 0.1
2017-Jun-13 01:00N 45°39' W 122°45'2 3.4
2017-Jun-13 00:31N 45°40' W 122°46'612.4
2017-Jun-13 00:00N 45°47' W 122°46'612.4
2017-Jun-12 23:30N 45°53' W 122°48'611.6
2017-Jun-12 23:00N 45°58' W 122°50'918.7
2017-Jun-12 22:30N 46°06' W 122°57'0 0.2
2017-Jun-12 22:01N 46°06' W 122°57'510.8
2017-Jun-12 21:30N 46°09' W 123°04'1020.4
2017-Jun-12 21:00N 46°09' W 123°18'2 3.2
2017-Jun-12 20:31N 46°09' W 123°21'816.8
2017-Jun-12 20:00N 46°16' W 123°27'510.1
2017-Jun-12 19:30N 46°15' W 123°35'3 5.2
2017-Jun-12 19:01N 46°16' W 123°38'713.8
2017-Jun-12 18:30N 46°13' W 123°47'5 9.5
2017-Jun-12 18:00N 46°11' W 123°54'611.1
2017-Jun-12 17:30N 46°15' W 124°00'713.4
2017-Jun-12 17:00N 46°13' W 124°10'714.8
2017-Jun-12 16:30N 46°08' W 124°18'714.6
2017-Jun-12 16:00N 46°04' W 124°27'713.2
2017-Jun-12 15:30N 46°01' W 124°35'611.1
2017-Jun-12 15:00N 45°58' W 124°41'510.6
2017-Jun-12 14:30N 45°54' W 124°47'1 1.0
2017-Jun-12 13:30N 45°55' W 124°47'1 2.4
2017-Jun-12 13:00N 45°56' W 124°46'1 2.0
2017-Jun-12 12:30N 45°57' W 124°46'0 0.9
2017-Jun-12 12:00N 45°58' W 124°46'0 0.8
2017-Jun-12 11:30N 45°58' W 124°46'0 0.9
2017-Jun-12 11:00N 45°58' W 124°46'0 0.9
2017-Jun-12 10:30N 45°59' W 124°45'1 1.1
2017-Jun-12 10:00N 45°59' W 124°45'1 1.1
2017-Jun-12 09:30N 45°60' W 124°45'1 1.2
2017-Jun-12 09:00N 46°00' W 124°44'1 1.2
2017-Jun-12 08:30N 46°01' W 124°44'1 2.2
2017-Jun-12 08:01N 46°02' W 124°43'1 1.3
2017-Jun-12 07:30N 46°03' W 124°43'1 3.0
2017-Jun-12 07:00N 46°04' W 124°43'1 1.7
2017-Jun-12 06:30N 46°05' W 124°43'1 1.7
2017-Jun-12 06:00N 46°06' W 124°43'1 2.3
2017-Jun-12 05:31N 46°07' W 124°43'1 2.1
2017-Jun-12 05:00N 46°08' W 124°43'1 2.0
2017-Jun-12 04:30N 46°09' W 124°44'1 2.1
2017-Jun-12 04:00N 46°10' W 124°44'1 2.3
2017-Jun-12 03:30N 46°11' W 124°45'1 2.8
2017-Jun-12 03:01N 46°12' W 124°46'1 2.5
2017-Jun-12 02:30N 46°13' W 124°47'1 2.4
2017-Jun-12 02:00N 46°14' W 124°48'1 2.3
2017-Jun-12 01:30N 46°15' W 124°49'1 2.3
2017-Jun-12 01:00N 46°15' W 124°51'1 2.0
2017-Jun-12 00:30N 46°15' W 124°52'1 2.0
2017-Jun-12 00:00N 46°16' W 124°54'1 1.9
2017-Jun-11 23:30N 46°16' W 124°55'1 1.8
2017-Jun-11 23:00N 46°16' W 124°56'1 1.7
2017-Jun-11 22:30N 46°16' W 124°58'1 1.3
2017-Jun-11 22:00N 46°16' W 124°59'0 0.9
2017-Jun-11 21:30N 46°16' W 124°59'0 0.7
2017-Jun-11 21:00N 46°16' W 124°60'0 0.6
2017-Jun-11 20:30N 46°17' W 124°60'0 0.8
2017-Jun-11 20:00N 46°17' W 124°60'1 1.1
2017-Jun-11 19:30N 46°17' W 124°60'1 1.4
2017-Jun-11 19:00N 46°18' W 124°59'1 2.9
2017-Jun-11 18:30N 46°20' W 124°60'5 9.7
2017-Jun-11 18:00N 46°24' W 125°01'815.5
2017-Jun-11 17:30N 46°32' W 125°03'815.4
2017-Jun-11 17:00N 46°40' W 125°05'815.6
2017-Jun-11 16:30N 46°47' W 125°08'815.7
2017-Jun-11 16:00N 46°55' W 125°10'815.6
2017-Jun-11 15:30N 47°02' W 125°12'6815.9
2017-Jun-11 11:12N 48°09' W 125°33'515.2
2017-Jun-11 10:54N 48°14' W 125°34'614.9
2017-Jun-11 10:30N 48°17' W 125°27'714.6
2017-Jun-11 10:00N 48°21' W 125°17'714.4
2017-Jun-11 09:30N 48°25' W 125°08'714.1
2017-Jun-11 09:00N 48°30' W 125°02'714.0
2017-Jun-11 08:30N 48°31' W 124°51'715.0
2017-Jun-11 08:00N 48°30' W 124°40'815.8
2017-Jun-11 07:30N 48°27' W 124°29'815.7
2017-Jun-11 07:00N 48°24' W 124°18'815.8
2017-Jun-11 06:30N 48°21' W 124°07'815.9
2017-Jun-11 06:00N 48°18' W 123°56'816.1
2017-Jun-11 05:30N 48°16' W 123°44'816.1
2017-Jun-11 05:00N 48°15' W 123°32'816.3
2017-Jun-11 04:30N 48°22' W 123°25'4 7.8
2017-Jun-11 04:00N 48°23' W 123°20'612.5
2017-Jun-11 03:30N 48°27' W 123°12'816.0
2017-Jun-11 03:01N 48°35' W 123°14'815.3
2017-Jun-11 02:30N 48°42' W 123°15'815.2
2017-Jun-11 02:01N 48°45' W 123°05'611.9
2017-Jun-11 01:31N 48°51' W 123°04'816.5
2017-Jun-11 01:00N 48°57' W 123°13'815.0
2017-Jun-11 00:30N 49°03' W 123°21'4 9.1
2017-Jun-11 00:01N 49°07' W 123°17'5 9.9
2017-Jun-10 23:30N 49°07' W 123°10'4 7.3
2017-Jun-10 22:59N 49°08' W 123°04'0 0.0
2017-Jun-10 22:29N 49°08' W 123°04'0 0.0
2017-Jun-10 21:59N 49°08' W 123°04'0 0.0
2017-Jun-10 21:29N 49°08' W 123°04'0 0.0
2017-Jun-10 20:59N 49°08' W 123°04'0 0.0
2017-Jun-10 20:29N 49°08' W 123°04'0 0.0
2017-Jun-10 19:59N 49°08' W 123°04'0 0.0
2017-Jun-10 19:29N 49°08' W 123°04'0 0.0
2017-Jun-10 18:59N 49°08' W 123°04'0 0.0
2017-Jun-10 18:29N 49°08' W 123°04'0 0.0
2017-Jun-10 17:59N 49°08' W 123°04'0 0.0
2017-Jun-10 17:29N 49°08' W 123°04'0 0.0
2017-Jun-10 16:59N 49°08' W 123°04'0 0.0
2017-Jun-10 16:29N 49°08' W 123°04'0 0.0
2017-Jun-10 15:59N 49°08' W 123°04'0 0.0
2017-Jun-10 15:29N 49°08' W 123°04'0 0.0
2017-Jun-10 14:59N 49°08' W 123°04'0 0.0
2017-Jun-10 13:59N 49°08' W 123°04'0 0.0
2017-Jun-10 13:29N 49°08' W 123°04'0 0.2
2017-Jun-10 13:00N 49°08' W 123°04'3 6.1
2017-Jun-10 12:30N 49°09' W 123°00'3 7.1
2017-Jun-10 12:00N 49°11' W 122°55'0 0.0
2017-Jun-10 11:29N 49°11' W 122°55'0 0.0
2017-Jun-10 10:59N 49°11' W 122°55'0 0.0
2017-Jun-10 10:29N 49°11' W 122°55'0 0.0
2017-Jun-10 09:59N 49°11' W 122°55'0 0.0
2017-Jun-10 09:29N 49°11' W 122°55'0 0.0
2017-Jun-10 08:59N 49°11' W 122°55'0 0.0
2017-Jun-10 08:29N 49°11' W 122°55'0 0.0
2017-Jun-10 07:59N 49°11' W 122°55'0 0.0
2017-Jun-10 07:29N 49°11' W 122°55'0 0.0
2017-Jun-10 06:59N 49°11' W 122°55'0 0.0
2017-Jun-10 06:29N 49°11' W 122°55'0 0.0
2017-Jun-10 05:59N 49°11' W 122°55'0 0.0
2017-Jun-10 05:29N 49°11' W 122°55'0 0.0
2017-Jun-10 04:59N 49°11' W 122°55'0 0.0
2017-Jun-10 04:29N 49°11' W 122°55'0 0.0
2017-Jun-10 03:59N 49°11' W 122°55'0 0.0
2017-Jun-10 03:29N 49°11' W 122°55'0 0.0
2017-Jun-10 02:59N 49°11' W 122°55'0 0.0
2017-Jun-10 02:29N 49°11' W 122°55'0 0.0
2017-Jun-10 01:59N 49°11' W 122°55'0 0.0
2017-Jun-10 01:29N 49°11' W 122°55'0 0.0
2017-Jun-10 00:59N 49°11' W 122°55'0 0.0
2017-Jun-10 00:29N 49°11' W 122°55'0 0.0
2017-Jun-09 23:59N 49°11' W 122°55'0 0.0
2017-Jun-09 23:29N 49°11' W 122°55'0 0.0
2017-Jun-09 22:59N 49°11' W 122°55'0 0.0
2017-Jun-09 22:29N 49°11' W 122°55'0 0.0
2017-Jun-09 21:59N 49°11' W 122°55'0 0.0
2017-Jun-09 21:29N 49°11' W 122°55'0 0.0
2017-Jun-09 20:59N 49°11' W 122°55'0 0.0
2017-Jun-09 20:29N 49°11' W 122°55'0 0.0
2017-Jun-09 19:59N 49°11' W 122°55'0 0.0
2017-Jun-09 19:29N 49°11' W 122°55'0 0.0
2017-Jun-09 18:59N 49°11' W 122°55'0 0.0
2017-Jun-09 18:29N 49°11' W 122°55'0 0.0
2017-Jun-09 17:59N 49°11' W 122°55'0 0.0
2017-Jun-09 17:29N 49°11' W 122°55'0 0.0
2017-Jun-09 16:59N 49°11' W 122°55'0 0.0
2017-Jun-09 16:29N 49°11' W 122°55'0 0.0
2017-Jun-09 15:59N 49°11' W 122°55'0 0.0
2017-Jun-09 15:29N 49°11' W 122°55'0 0.0
2017-Jun-09 14:59N 49°11' W 122°55'0 0.0
2017-Jun-09 14:29N 49°11' W 122°55'0 0.0
2017-Jun-09 13:26N 49°11' W 122°55'0 0.0
2017-Jun-09 12:59N 49°11' W 122°55'0 0.0
2017-Jun-09 12:29N 49°11' W 122°55'0 0.0
2017-Jun-09 11:59N 49°11' W 122°55'0 0.0
2017-Jun-09 11:29N 49°11' W 122°55'0 0.0
2017-Jun-09 10:59N 49°11' W 122°55'0 0.0
2017-Jun-09 10:29N 49°11' W 122°55'0 0.0
2017-Jun-09 09:59N 49°11' W 122°55'0 0.0
2017-Jun-09 09:29N 49°11' W 122°55'0 0.0
2017-Jun-09 08:59N 49°11' W 122°55'0 0.0
2017-Jun-09 08:29N 49°11' W 122°55'0 0.0
2017-Jun-09 07:59N 49°11' W 122°55'0 0.0
2017-Jun-09 07:29N 49°11' W 122°55'0 0.0
2017-Jun-09 06:59N 49°11' W 122°55'0 0.0
2017-Jun-09 06:29N 49°11' W 122°55'0 0.0
2017-Jun-09 05:59N 49°11' W 122°55'0 0.0
2017-Jun-09 05:29N 49°11' W 122°55'0 0.0
2017-Jun-09 04:59N 49°11' W 122°55'0 0.0
2017-Jun-09 04:29N 49°11' W 122°55'0 0.0
2017-Jun-09 03:59N 49°11' W 122°55'0 0.0
2017-Jun-09 03:29N 49°11' W 122°55'0 0.2
2017-Jun-09 03:00N 49°11' W 122°55'2 4.0
2017-Jun-09 02:30N 49°09' W 122°57'5 9.3
2017-Jun-09 02:00N 49°08' W 123°04'5 9.3
2017-Jun-09 01:30N 49°07' W 123°11'5 9.6
2017-Jun-09 01:00N 49°06' W 123°18'3 6.5
2017-Jun-09 00:29N 49°03' W 123°19'612.4
2017-Jun-09 00:00N 48°59' W 123°13'815.7
2017-Jun-08 23:30N 48°53' W 123°04'714.8
2017-Jun-08 23:01N 48°46' W 123°02'917.9
2017-Jun-08 22:31N 48°42' W 123°14'815.5
2017-Jun-08 22:01N 48°35' W 123°12'816.8
2017-Jun-08 21:31N 48°26' W 123°10'816.1
2017-Jun-08 21:01N 48°22' W 123°20'4 7.5
2017-Jun-08 20:31N 48°19' W 123°24'3 6.5
2017-Jun-08 20:01N 48°16' W 123°26'3 7.0
2017-Jun-08 19:31N 48°14' W 123°30'3 6.3
2017-Jun-08 19:00N 48°13' W 123°35'4 7.5
2017-Jun-08 18:31N 48°13' W 123°40'4 8.1
2017-Jun-08 17:59N 48°13' W 123°47'4 8.3
2017-Jun-08 17:30N 48°13' W 123°53'4 7.3
2017-Jun-08 17:01N 48°14' W 123°58'4 7.3
2017-Jun-08 16:31N 48°16' W 124°03'4 8.8
2017-Jun-08 16:01N 48°18' W 124°09'4 8.5
2017-Jun-08 15:31N 48°20' W 124°15'4 8.8
2017-Jun-08 15:01N 48°21' W 124°21'5 9.6
2017-Jun-08 14:31N 48°24' W 124°27'10 9.8
2017-Jun-08 13:31N 48°28' W 124°41'5 9.4
2017-Jun-08 13:01N 48°29' W 124°48'510.0
2017-Jun-08 12:30N 48°29' W 124°55'510.6
2017-Jun-08 12:00N 48°29' W 125°03'611.1
2017-Jun-08 11:30N 48°28' W 125°12'611.7
2017-Jun-08 11:01N 48°28' W 125°20'611.3
2017-Jun-08 10:30N 48°29' W 125°29'611.5
2017-Jun-08 10:00N 48°29' W 125°38'611.3
2017-Jun-08 09:31N 48°29' W 125°46'611.1
2017-Jun-08 09:00N 48°29' W 125°55'611.3
2017-Jun-08 08:30N 48°29' W 126°03'611.1
2017-Jun-08 08:00N 48°29' W 126°11'4 8.3
2017-Jun-08 07:31N 48°29' W 126°18'714.0
2017-Jun-08 07:00N 48°29' W 126°28'714.4
2017-Jun-08 06:29N 48°29' W 126°39'  
Track history (hours):
 
Tides and Currents Weather Stations Pressure Air Temp Water Temp Dewpoint Dewpoint Depression Visibility Wind Speed Wind Dir Waves Ship Positions

Georgia Highway

Last reported at 2017-Jun-14 11:09 UTC. Time now 2017-Jun-22 23:57 UTC.
Position N 46°13' W 125°35'.
Warning: this ship's position is 8 days out of date.

Length 200 m; draft 7.8 m.

Type: Cargo ship. MMSI: 432629000.

Date/timePositionNaut miles runAvg speedWind from/ knotsBaromVisibWave heightAir tempDewpointWater temp
2017-Jun-14 11:09N 46°13' W 125°35'215.7
2017-Jun-14 11:00N 46°13' W 125°31'816.0
2017-Jun-14 10:30N 46°13' W 125°20'816.2
2017-Jun-14 10:01N 46°12' W 125°08'815.8
2017-Jun-14 09:30N 46°12' W 124°57'815.4
2017-Jun-14 09:00N 46°12' W 124°46'715.0
2017-Jun-14 08:30N 46°12' W 124°35'815.1
2017-Jun-14 08:01N 46°12' W 124°24'815.7
2017-Jun-14 07:31N 46°12' W 124°13'5 9.5
2017-Jun-14 07:00N 46°14' W 124°06'612.5
2017-Jun-14 06:31N 46°13' W 123°58'611.1
2017-Jun-14 06:00N 46°12' W 123°50'5 9.4
2017-Jun-14 05:30N 46°14' W 123°44'713.8
2017-Jun-14 05:00N 46°15' W 123°34'611.4
2017-Jun-14 04:31N 46°14' W 123°26'612.0
2017-Jun-14 04:00N 46°09' W 123°23'714.3
2017-Jun-14 03:30N 46°10' W 123°12'815.2
2017-Jun-14 03:01N 46°09' W 123°02'611.5
2017-Jun-14 02:30N 46°05' W 122°55'612.6
2017-Jun-14 02:01N 45°60' W 122°51'612.4
2017-Jun-14 01:31N 45°54' W 122°48'714.2
2017-Jun-14 01:01N 45°47' W 122°46'714.5
2017-Jun-14 00:30N 45°40' W 122°46'1 1.8
2017-Jun-14 00:00N 45°39' W 122°45'0 0.0
2017-Jun-13 23:30N 45°39' W 122°45'0 0.0
2017-Jun-13 23:00N 45°39' W 122°45'0 0.0
2017-Jun-13 22:27N 45°39' W 122°45'0 0.0
2017-Jun-13 22:00N 45°39' W 122°45'0 0.0
2017-Jun-13 21:30N 45°39' W 122°45'0 0.0
2017-Jun-13 21:00N 45°39' W 122°45'0 0.0
2017-Jun-13 20:30N 45°39' W 122°45'0 0.0
2017-Jun-13 20:00N 45°39' W 122°45'0 0.0
2017-Jun-13 19:27N 45°39' W 122°45'0 0.0
2017-Jun-13 19:00N 45°39' W 122°45'0 0.0
2017-Jun-13 18:30N 45°39' W 122°45'0 0.0
2017-Jun-13 18:00N 45°39' W 122°45'0 0.0
2017-Jun-13 17:30N 45°39' W 122°45'0 0.0
2017-Jun-13 17:00N 45°39' W 122°45'0 0.0
2017-Jun-13 16:30N 45°39' W 122°45'0 0.0
2017-Jun-13 15:57N 45°39' W 122°45'0 0.0
2017-Jun-13 15:27N 45°39' W 122°45'0 0.0
2017-Jun-13 15:00N 45°39' W 122°45'0 0.0
2017-Jun-13 14:27N 45°39' W 122°45'0 0.0
2017-Jun-13 13:21N 45°39' W 122°45'0 0.0
2017-Jun-13 12:51N 45°39' W 122°45'0 0.0
2017-Jun-13 12:30N 45°39' W 122°45'0 0.0
2017-Jun-13 12:00N 45°39' W 122°45'0 0.0
2017-Jun-13 11:30N 45°39' W 122°45'0 0.0
2017-Jun-13 11:00N 45°39' W 122°45'0 0.0
2017-Jun-13 10:30N 45°39' W 122°45'0 0.0
2017-Jun-13 10:00N 45°39' W 122°45'0 0.0
2017-Jun-13 09:27N 45°39' W 122°45'0 0.0
2017-Jun-13 09:00N 45°39' W 122°45'0 0.0
2017-Jun-13 08:30N 45°39' W 122°45'0 0.0
2017-Jun-13 08:00N 45°39' W 122°45'0 0.0
2017-Jun-13 07:24N 45°39' W 122°45'0 0.0
2017-Jun-13 07:00N 45°39' W 122°45'0 0.0
2017-Jun-13 06:30N 45°39' W 122°45'0 0.0
2017-Jun-13 06:00N 45°39' W 122°45'0 0.0
2017-Jun-13 05:24N 45°39' W 122°45'0 0.0
2017-Jun-13 04:59N 45°39' W 122°45'0 0.0
2017-Jun-13 04:30N 45°39' W 122°45'0 0.0
2017-Jun-13 04:00N 45°39' W 122°45'0 0.0
2017-Jun-13 03:30N 45°39' W 122°45'0 0.0
2017-Jun-13 03:00N 45°39' W 122°45'0 0.0
2017-Jun-13 01:54N 45°39' W 122°45'0 0.0
2017-Jun-13 01:30N 45°39' W 122°45'0 0.1
2017-Jun-13 01:00N 45°39' W 122°45'2 3.4
2017-Jun-13 00:31N 45°40' W 122°46'612.4
2017-Jun-13 00:00N 45°47' W 122°46'612.4
2017-Jun-12 23:30N 45°53' W 122°48'611.6
2017-Jun-12 23:00N 45°58' W 122°50'918.7
2017-Jun-12 22:30N 46°06' W 122°57'0 0.2
2017-Jun-12 22:01N 46°06' W 122°57'510.8
2017-Jun-12 21:30N 46°09' W 123°04'1020.4
2017-Jun-12 21:00N 46°09' W 123°18'2 3.2
2017-Jun-12 20:31N 46°09' W 123°21'816.8
2017-Jun-12 20:00N 46°16' W 123°27'510.1
2017-Jun-12 19:30N 46°15' W 123°35'3 5.2
2017-Jun-12 19:01N 46°16' W 123°38'713.8
2017-Jun-12 18:30N 46°13' W 123°47'5 9.5
2017-Jun-12 18:00N 46°11' W 123°54'611.1
2017-Jun-12 17:30N 46°15' W 124°00'713.4
2017-Jun-12 17:00N 46°13' W 124°10'714.8
2017-Jun-12 16:30N 46°08' W 124°18'714.6
2017-Jun-12 16:00N 46°04' W 124°27'713.2
2017-Jun-12 15:30N 46°01' W 124°35'611.1
2017-Jun-12 15:00N 45°58' W 124°41'510.6
2017-Jun-12 14:30N 45°54' W 124°47'1 1.0
2017-Jun-12 13:30N 45°55' W 124°47'1 2.4
2017-Jun-12 13:00N 45°56' W 124°46'1 2.0
2017-Jun-12 12:30N 45°57' W 124°46'0 0.9
2017-Jun-12 12:00N 45°58' W 124°46'0 0.8
2017-Jun-12 11:30N 45°58' W 124°46'0 0.9
2017-Jun-12 11:00N 45°58' W 124°46'0 0.9
2017-Jun-12 10:30N 45°59' W 124°45'1 1.1
2017-Jun-12 10:00N 45°59' W 124°45'1 1.1
2017-Jun-12 09:30N 45°60' W 124°45'1 1.2
2017-Jun-12 09:00N 46°00' W 124°44'1 1.2
2017-Jun-12 08:30N 46°01' W 124°44'1 2.2
2017-Jun-12 08:01N 46°02' W 124°43'1 1.3
2017-Jun-12 07:30N 46°03' W 124°43'1 3.0
2017-Jun-12 07:00N 46°04' W 124°43'1 1.7
2017-Jun-12 06:30N 46°05' W 124°43'1 1.7
2017-Jun-12 06:00N 46°06' W 124°43'1 2.3
2017-Jun-12 05:31N 46°07' W 124°43'1 2.1
2017-Jun-12 05:00N 46°08' W 124°43'1 2.0
2017-Jun-12 04:30N 46°09' W 124°44'1 2.1
2017-Jun-12 04:00N 46°10' W 124°44'1 2.3
2017-Jun-12 03:30N 46°11' W 124°45'1 2.8
2017-Jun-12 03:01N 46°12' W 124°46'1 2.5
2017-Jun-12 02:30N 46°13' W 124°47'1 2.4
2017-Jun-12 02:00N 46°14' W 124°48'1 2.3
2017-Jun-12 01:30N 46°15' W 124°49'1 2.3
2017-Jun-12 01:00N 46°15' W 124°51'1 2.0
2017-Jun-12 00:30N 46°15' W 124°52'1 2.0
2017-Jun-12 00:00N 46°16' W 124°54'1 1.9
2017-Jun-11 23:30N 46°16' W 124°55'1 1.8
2017-Jun-11 23:00N 46°16' W 124°56'1 1.7
2017-Jun-11 22:30N 46°16' W 124°58'1 1.3
2017-Jun-11 22:00N 46°16' W 124°59'0 0.9
2017-Jun-11 21:30N 46°16' W 124°59'0 0.7
2017-Jun-11 21:00N 46°16' W 124°60'0 0.6
2017-Jun-11 20:30N 46°17' W 124°60'0 0.8
2017-Jun-11 20:00N 46°17' W 124°60'1 1.1
2017-Jun-11 19:30N 46°17' W 124°60'1 1.4
2017-Jun-11 19:00N 46°18' W 124°59'1 2.9
2017-Jun-11 18:30N 46°20' W 124°60'5 9.7
2017-Jun-11 18:00N 46°24' W 125°01'815.5
2017-Jun-11 17:30N 46°32' W 125°03'815.4
2017-Jun-11 17:00N 46°40' W 125°05'815.6
2017-Jun-11 16:30N 46°47' W 125°08'815.7
2017-Jun-11 16:00N 46°55' W 125°10'815.6
2017-Jun-11 15:30N 47°02' W 125°12'6815.9
2017-Jun-11 11:12N 48°09' W 125°33'515.2
2017-Jun-11 10:54N 48°14' W 125°34'614.9
2017-Jun-11 10:30N 48°17' W 125°27'714.6
2017-Jun-11 10:00N 48°21' W 125°17'714.4
2017-Jun-11 09:30N 48°25' W 125°08'714.1
2017-Jun-11 09:00N 48°30' W 125°02'714.0
2017-Jun-11 08:30N 48°31' W 124°51'715.0
2017-Jun-11 08:00N 48°30' W 124°40'815.8
2017-Jun-11 07:30N 48°27' W 124°29'815.7
2017-Jun-11 07:00N 48°24' W 124°18'815.8
2017-Jun-11 06:30N 48°21' W 124°07'815.9
2017-Jun-11 06:00N 48°18' W 123°56'816.1
2017-Jun-11 05:30N 48°16' W 123°44'816.1
2017-Jun-11 05:00N 48°15' W 123°32'816.3
2017-Jun-11 04:30N 48°22' W 123°25'4 7.8
2017-Jun-11 04:00N 48°23' W 123°20'612.5
2017-Jun-11 03:30N 48°27' W 123°12'816.0
2017-Jun-11 03:01N 48°35' W 123°14'815.3
2017-Jun-11 02:30N 48°42' W 123°15'815.2
2017-Jun-11 02:01N 48°45' W 123°05'611.9
2017-Jun-11 01:31N 48°51' W 123°04'816.5
2017-Jun-11 01:00N 48°57' W 123°13'815.0
2017-Jun-11 00:30N 49°03' W 123°21'4 9.1
2017-Jun-11 00:01N 49°07' W 123°17'5 9.9
2017-Jun-10 23:30N 49°07' W 123°10'4 7.3
2017-Jun-10 22:59N 49°08' W 123°04'0 0.0
2017-Jun-10 22:29N 49°08' W 123°04'0 0.0
2017-Jun-10 21:59N 49°08' W 123°04'0 0.0
2017-Jun-10 21:29N 49°08' W 123°04'0 0.0
2017-Jun-10 20:59N 49°08' W 123°04'0 0.0
2017-Jun-10 20:29N 49°08' W 123°04'0 0.0
2017-Jun-10 19:59N 49°08' W 123°04'0 0.0
2017-Jun-10 19:29N 49°08' W 123°04'0 0.0
2017-Jun-10 18:59N 49°08' W 123°04'0 0.0
2017-Jun-10 18:29N 49°08' W 123°04'0 0.0
2017-Jun-10 17:59N 49°08' W 123°04'0 0.0
2017-Jun-10 17:29N 49°08' W 123°04'0 0.0
2017-Jun-10 16:59N 49°08' W 123°04'0 0.0
2017-Jun-10 16:29N 49°08' W 123°04'0 0.0
2017-Jun-10 15:59N 49°08' W 123°04'0 0.0
2017-Jun-10 15:29N 49°08' W 123°04'0 0.0
2017-Jun-10 14:59N 49°08' W 123°04'0 0.0
2017-Jun-10 13:59N 49°08' W 123°04'0 0.0
2017-Jun-10 13:29N 49°08' W 123°04'0 0.2
2017-Jun-10 13:00N 49°08' W 123°04'3 6.1
2017-Jun-10 12:30N 49°09' W 123°00'3 7.1
2017-Jun-10 12:00N 49°11' W 122°55'0 0.0
2017-Jun-10 11:29N 49°11' W 122°55'0 0.0
2017-Jun-10 10:59N 49°11' W 122°55'0 0.0
2017-Jun-10 10:29N 49°11' W 122°55'0 0.0
2017-Jun-10 09:59N 49°11' W 122°55'0 0.0
2017-Jun-10 09:29N 49°11' W 122°55'0 0.0
2017-Jun-10 08:59N 49°11' W 122°55'0 0.0
2017-Jun-10 08:29N 49°11' W 122°55'0 0.0
2017-Jun-10 07:59N 49°11' W 122°55'0 0.0
2017-Jun-10 07:29N 49°11' W 122°55'0 0.0
2017-Jun-10 06:59N 49°11' W 122°55'0 0.0
2017-Jun-10 06:29N 49°11' W 122°55'0 0.0
2017-Jun-10 05:59N 49°11' W 122°55'0 0.0
2017-Jun-10 05:29N 49°11' W 122°55'0 0.0
2017-Jun-10 04:59N 49°11' W 122°55'0 0.0
2017-Jun-10 04:29N 49°11' W 122°55'0 0.0
2017-Jun-10 03:59N 49°11' W 122°55'0 0.0
2017-Jun-10 03:29N 49°11' W 122°55'0 0.0
2017-Jun-10 02:59N 49°11' W 122°55'0 0.0
2017-Jun-10 02:29N 49°11' W 122°55'0 0.0
2017-Jun-10 01:59N 49°11' W 122°55'0 0.0
2017-Jun-10 01:29N 49°11' W 122°55'0 0.0
2017-Jun-10 00:59N 49°11' W 122°55'0 0.0
2017-Jun-10 00:29N 49°11' W 122°55'0 0.0
2017-Jun-09 23:59N 49°11' W 122°55'0 0.0
2017-Jun-09 23:29N 49°11' W 122°55'0 0.0
2017-Jun-09 22:59N 49°11' W 122°55'0 0.0
2017-Jun-09 22:29N 49°11' W 122°55'0 0.0
2017-Jun-09 21:59N 49°11' W 122°55'0 0.0
2017-Jun-09 21:29N 49°11' W 122°55'0 0.0
2017-Jun-09 20:59N 49°11' W 122°55'0 0.0
2017-Jun-09 20:29N 49°11' W 122°55'0 0.0
2017-Jun-09 19:59N 49°11' W 122°55'0 0.0
2017-Jun-09 19:29N 49°11' W 122°55'0 0.0
2017-Jun-09 18:59N 49°11' W 122°55'0 0.0
2017-Jun-09 18:29N 49°11' W 122°55'0 0.0
2017-Jun-09 17:59N 49°11' W 122°55'0 0.0
2017-Jun-09 17:29N 49°11' W 122°55'0 0.0
2017-Jun-09 16:59N 49°11' W 122°55'0 0.0
2017-Jun-09 16:29N 49°11' W 122°55'0 0.0
2017-Jun-09 15:59N 49°11' W 122°55'0 0.0
2017-Jun-09 15:29N 49°11' W 122°55'0 0.0
2017-Jun-09 14:59N 49°11' W 122°55'0 0.0
2017-Jun-09 14:29N 49°11' W 122°55'0 0.0
2017-Jun-09 13:26N 49°11' W 122°55'0 0.0
2017-Jun-09 12:59N 49°11' W 122°55'0 0.0
2017-Jun-09 12:29N 49°11' W 122°55'0 0.0
2017-Jun-09 11:59N 49°11' W 122°55'0 0.0
2017-Jun-09 11:29N 49°11' W 122°55'0 0.0
2017-Jun-09 10:59N 49°11' W 122°55'0 0.0
2017-Jun-09 10:29N 49°11' W 122°55'0 0.0
2017-Jun-09 09:59N 49°11' W 122°55'0 0.0
2017-Jun-09 09:29N 49°11' W 122°55'0 0.0
2017-Jun-09 08:59N 49°11' W 122°55'0 0.0
2017-Jun-09 08:29N 49°11' W 122°55'0 0.0
2017-Jun-09 07:59N 49°11' W 122°55'0 0.0
2017-Jun-09 07:29N 49°11' W 122°55'0 0.0
2017-Jun-09 06:59N 49°11' W 122°55'0 0.0
2017-Jun-09 06:29N 49°11' W 122°55'0 0.0
2017-Jun-09 05:59N 49°11' W 122°55'0 0.0
2017-Jun-09 05:29N 49°11' W 122°55'0 0.0
2017-Jun-09 04:59N 49°11' W 122°55'0 0.0
2017-Jun-09 04:29N 49°11' W 122°55'0 0.0
2017-Jun-09 03:59N 49°11' W 122°55'0 0.0
2017-Jun-09 03:29N 49°11' W 122°55'0 0.2
2017-Jun-09 03:00N 49°11' W 122°55'2 4.0
2017-Jun-09 02:30N 49°09' W 122°57'5 9.3
2017-Jun-09 02:00N 49°08' W 123°04'5 9.3
2017-Jun-09 01:30N 49°07' W 123°11'5 9.6
2017-Jun-09 01:00N 49°06' W 123°18'3 6.5
2017-Jun-09 00:29N 49°03' W 123°19'612.4
2017-Jun-09 00:00N 48°59' W 123°13'815.7
2017-Jun-08 23:30N 48°53' W 123°04'714.8
2017-Jun-08 23:01N 48°46' W 123°02'917.9
2017-Jun-08 22:31N 48°42' W 123°14'815.5
2017-Jun-08 22:01N 48°35' W 123°12'816.8
2017-Jun-08 21:31N 48°26' W 123°10'816.1
2017-Jun-08 21:01N 48°22' W 123°20'4 7.5
2017-Jun-08 20:31N 48°19' W 123°24'3 6.5
2017-Jun-08 20:01N 48°16' W 123°26'3 7.0
2017-Jun-08 19:31N 48°14' W 123°30'3 6.3
2017-Jun-08 19:00N 48°13' W 123°35'4 7.5
2017-Jun-08 18:31N 48°13' W 123°40'4 8.1
2017-Jun-08 17:59N 48°13' W 123°47'4 8.3
2017-Jun-08 17:30N 48°13' W 123°53'4 7.3
2017-Jun-08 17:01N 48°14' W 123°58'4 7.3
2017-Jun-08 16:31N 48°16' W 124°03'4 8.8
2017-Jun-08 16:01N 48°18' W 124°09'4 8.5
2017-Jun-08 15:31N 48°20' W 124°15'4 8.8
2017-Jun-08 15:01N 48°21' W 124°21'5 9.6
2017-Jun-08 14:31N 48°24' W 124°27'10 9.8
2017-Jun-08 13:31N 48°28' W 124°41'5 9.4
2017-Jun-08 13:01N 48°29' W 124°48'510.0
2017-Jun-08 12:30N 48°29' W 124°55'510.6
2017-Jun-08 12:00N 48°29' W 125°03'611.1
2017-Jun-08 11:30N 48°28' W 125°12'611.7
2017-Jun-08 11:01N 48°28' W 125°20'611.3
2017-Jun-08 10:30N 48°29' W 125°29'611.5
2017-Jun-08 10:00N 48°29' W 125°38'611.3
2017-Jun-08 09:31N 48°29' W 125°46'611.1
2017-Jun-08 09:00N 48°29' W 125°55'611.3
2017-Jun-08 08:30N 48°29' W 126°03'611.1
2017-Jun-08 08:00N 48°29' W 126°11'4 8.3
2017-Jun-08 07:31N 48°29' W 126°18'714.0
2017-Jun-08 07:00N 48°29' W 126°28'714.4
2017-Jun-08 06:29N 48°29' W 126°39'  

Dump ship's entire track history